Latest Weather Observations for Kingfish B

IDV60801

Issued at 11:02 pm EST Saturday 23 May 2015 (issued every 30 minutes, with the page automatically refreshed every 10 minutes)

About weather observations | Map of weather stations | Latest weather observations for VIC | Other Formats
Station Details ID: 400139 Name: KINGFISH B (PLATFORM) Lat: -38.60 Lon: 148.19 Height: 31.4 m
Data from the previous 72 hours. | See also: Recent months for locations in Victoria
Date/Time
EST
Temp
°C
App
Temp
°C
Dew
Point
Rel
Hum
%
Delta-T
°C
Wind Press
QNH
hPa
Press
MSL
hPa
Rain
since 9 am
mm
Dir
 
Spd
km/h
Gust
km/h
Spd
kts
Gust
kts
23/09:50pm 13.5 9.3 7.3 66 3.0 SW 19 26 10 14 1030.1 - -
23/09:40pm 13.7 9.3 7.4 65 3.1 SW 20 26 11 14 1030.1 - -
23/09:30pm 13.8 9.5 7.9 67 2.9 SW 20 28 11 15 1030.1 - -
23/09:20pm 13.5 9.1 7.3 66 3.0 SW 20 26 11 14 1030.1 - -
23/09:10pm 13.5 8.7 7.3 66 3.0 SW 22 35 12 19 1030.4 - -
23/09:00pm 13.5 8.7 7.5 67 2.9 SW 22 26 12 14 1030.3 - -
23/08:50pm 13.5 9.1 7.4 66 3.0 SW 20 30 11 16 1030.3 - -
23/08:40pm 13.4 7.9 7.4 67 2.9 SW 26 37 14 20 1030.3 - -
23/08:30pm 13.4 8.3 7.6 68 2.8 SSW 24 32 13 17 1030.5 - -
23/08:20pm 13.4 9.1 7.8 69 2.8 SW 20 26 11 14 1030.4 - -
23/08:10pm 13.3 8.9 7.6 68 2.8 SW 20 28 11 15 1030.4 - -
23/08:00pm 13.3 8.9 7.6 68 2.8 SW 20 26 11 14 1030.2 - -
23/07:50pm 13.2 8.8 7.4 68 2.8 SW 20 28 11 15 1030.1 - -
23/07:40pm 13.3 8.5 7.5 68 2.8 SW 22 28 12 15 1030.2 - -
23/07:30pm 13.3 8.4 7.1 66 3.0 SW 22 33 12 18 1030.1 - -
23/07:20pm 13.3 7.7 7.2 66 3.0 SW 26 33 14 18 1030.2 - -
23/07:10pm 13.3 7.7 7.3 67 2.9 SW 26 33 14 18 1030.1 - -
23/07:00pm 13.4 7.4 7.2 66 3.0 SW 28 37 15 20 1030.3 - -
23/06:50pm 13.2 7.3 7.4 68 2.8 SW 28 35 15 19 1029.9 - -
23/06:40pm 13.2 6.9 7.3 67 2.9 SW 30 37 16 20 1029.7 - -
23/06:20pm 13.1 6.7 7.1 67 2.9 SW 30 39 16 21 1029.7 - -
23/06:10pm 13.3 6.6 7.4 67 2.9 SW 32 39 17 21 1029.6 - -
23/06:00pm 13.3 6.6 7.5 68 2.8 SW 32 37 17 20 1029.8 - -
23/05:50pm 13.3 6.6 7.5 68 2.8 SW 32 41 17 22 1029.6 - -
23/05:40pm 13.2 6.3 7.4 68 2.8 SW 33 39 18 21 1029.5 - -
23/05:30pm 13.3 6.5 7.7 69 2.8 SW 33 41 18 22 1029.3 - -
23/05:20pm 13.2 6.4 7.5 68 2.8 SW 33 43 18 23 1029.3 - -
23/05:10pm 13.3 6.5 7.7 69 2.8 SW 33 41 18 22 1029.3 - -
23/05:00pm 13.4 6.6 7.9 69 2.7 SW 33 44 18 24 1029.0 - -
23/04:50pm 13.5 7.0 8.0 69 2.7 SW 32 43 17 23 1029.2 - -
23/04:40pm 13.6 6.8 7.9 68 2.8 SW 33 41 18 22 1029.2 - -
23/04:30pm 13.6 6.5 7.9 68 2.8 SW 35 44 19 24 1029.5 - -
23/04:20pm 13.4 6.6 7.7 68 2.8 SW 33 43 18 23 1029.0 - -
23/04:10pm 13.4 6.6 7.8 69 2.8 SW 33 41 18 22 1029.2 - -
23/04:00pm 13.5 6.7 7.7 68 2.9 SW 33 41 18 22 1028.9 - -
23/03:50pm 13.5 6.7 7.8 68 2.8 SW 33 41 18 22 1028.8 - -
23/03:40pm 13.6 6.4 7.8 68 2.9 SW 35 43 19 23 1028.8 - -
23/03:30pm 13.7 6.9 7.9 68 2.9 SW 33 41 18 22 1029.2 - -
23/03:20pm 13.8 7.0 7.9 67 2.9 SW 33 41 18 22 1028.9 - -
23/03:10pm 13.8 7.2 7.9 67 2.9 SW 32 39 17 21 1028.9 - -
23/03:00pm 13.8 6.6 7.6 66 3.1 WSW 35 41 19 22 1028.8 - -
23/02:50pm 14.0 6.9 7.9 66 3.0 SW 35 43 19 23 1028.9 - -
23/02:40pm 13.9 7.1 7.9 67 3.0 SW 33 43 18 23 1028.8 - -
23/02:30pm 14.1 7.4 8.1 67 3.0 SW 33 41 18 22 1028.7 - -
23/02:20pm 14.0 6.9 7.9 66 3.0 SW 35 43 19 23 1028.6 - -
23/02:10pm 14.1 7.0 8.0 66 3.0 SW 35 46 19 25 1028.6 - -
23/02:00pm 14.1 7.3 7.9 66 3.1 SW 33 41 18 22 1028.7 - -
23/01:50pm 14.2 7.4 7.5 64 3.3 SW 33 43 18 23 1028.5 - -
23/01:40pm 14.3 6.7 7.6 64 3.3 SW 37 46 20 25 1028.4 - -
23/01:30pm 14.2 7.0 7.5 64 3.3 WSW 35 44 19 24 1028.5 - -
23/01:20pm 14.3 7.1 7.7 64 3.3 WSW 35 43 19 23 1028.4 - -
23/01:10pm 14.2 6.9 7.4 63 3.3 WSW 35 44 19 24 1028.4 - -
23/01:00pm 14.2 6.6 7.7 65 3.2 WSW 37 43 20 23 1028.5 - -
23/12:50pm 14.2 6.9 7.4 63 3.3 SW 35 43 19 23 1028.7 - -
23/12:40pm 14.4 6.9 7.9 65 3.2 WSW 37 43 20 23 1028.3 - -
23/12:30pm 14.4 7.6 7.9 65 3.2 WSW 33 44 18 24 1028.4 - -
23/12:20pm 14.4 7.8 7.8 64 3.3 WSW 32 41 17 22 1028.5 - -
23/12:10pm 14.3 7.5 7.7 64 3.3 WSW 33 39 18 21 1028.6 - -
23/12:00pm 14.4 7.6 7.5 63 3.4 WSW 33 43 18 23 1028.6 - -
23/11:50am 14.4 7.1 7.4 63 3.4 WSW 35 41 19 22 1028.7 - -
23/11:40am 14.2 7.3 7.4 63 3.3 WSW 33 43 18 23 1028.9 - -
23/11:30am 14.3 7.1 7.6 64 3.3 WSW 35 43 19 23 1028.9 - -
23/11:20am 14.2 7.5 7.3 63 3.4 SW 32 39 17 21 1029.3 - -
23/11:10am 14.3 7.7 7.6 64 3.3 WSW 32 41 17 22 1029.3 - -
23/11:00am 14.2 7.4 7.5 64 3.3 SW 33 39 18 21 1029.4 - -
23/10:50am 14.3 7.7 7.6 64 3.3 WSW 32 41 17 22 1029.4 - -
23/10:40am 14.4 7.7 7.5 63 3.4 WSW 32 39 17 21 1029.5 - -
23/10:30am 14.4 7.6 7.1 61 3.6 SW 32 37 17 20 1029.7 - -
23/10:20am 14.2 7.3 7.3 63 3.4 WSW 33 43 18 23 1029.7 - -
23/10:10am 14.4 7.7 7.5 63 3.4 WSW 32 41 17 22 1029.9 - -
23/10:00am 14.4 8.1 7.3 62 3.5 WSW 30 35 16 19 1030.0 - -
23/09:50am 14.2 7.3 7.1 62 3.5 SW 33 39 18 21 1030.0 - -
23/09:40am 14.2 8.2 6.9 61 3.6 SW 28 37 15 20 1030.1 - -
23/09:30am 14.1 7.3 7.1 62 3.4 SW 32 37 17 20 1030.0 - -
23/09:20am 14.1 7.4 7.4 64 3.3 SW 32 37 17 20 1030.0 - -
23/09:10am 14.1 7.2 7.4 64 3.3 WSW 33 39 18 21 1029.9 - -
23/09:00am 14.0 7.6 7.0 62 3.4 WSW 30 35 16 19 1030.1 - -
23/08:50am 14.0 7.7 7.3 64 3.3 SW 30 35 16 19 1030.1 - -
23/08:40am 14.1 7.4 7.3 63 3.3 WSW 32 39 17 21 1029.9 - -
23/08:30am 14.2 7.9 7.3 63 3.4 WSW 30 39 16 21 1029.9 - -
23/08:20am 14.0 7.9 6.6 61 3.6 WSW 28 35 15 19 1030.0 - -
23/08:10am 13.8 7.4 6.8 62 3.4 WSW 30 39 16 21 1030.0 - -
23/08:00am 13.9 7.6 7.2 64 3.3 WSW 30 37 16 20 1029.9 - -
23/07:50am 13.9 8.0 7.3 64 3.2 WSW 28 37 15 20 1029.8 - -
23/07:40am 13.7 7.7 7.2 65 3.2 WSW 28 33 15 18 1029.8 - -
23/07:30am 13.6 8.0 7.2 65 3.1 WSW 26 35 14 19 1029.8 - -
23/07:20am 13.6 7.3 7.4 66 3.0 WSW 30 35 16 19 1029.7 - -
23/07:10am 13.6 7.3 7.2 65 3.1 WSW 30 39 16 21 1029.6 - -
23/07:00am 13.6 7.7 7.3 65 3.1 WSW 28 35 15 19 1029.5 - -
23/06:50am 13.5 7.9 7.1 65 3.1 WSW 26 33 14 18 1029.4 - -
23/06:40am 13.3 7.2 6.8 64 3.1 WSW 28 33 15 18 1029.4 - -
23/06:30am 13.4 6.6 7.0 65 3.1 WSW 32 37 17 20 1029.3 - -
23/06:20am 13.3 7.3 6.9 65 3.1 WSW 28 35 15 19 1029.4 - -
23/06:10am 13.2 6.4 6.7 64 3.1 SW 32 37 17 20 1029.2 - -
23/06:00am 13.4 6.7 7.2 66 3.0 WSW 32 37 17 20 1029.1 - -
23/05:50am 13.4 6.6 7.1 65 3.1 WSW 32 39 17 21 1028.9 - -
23/05:40am 13.4 7.1 7.3 66 3.0 WSW 30 37 16 20 1028.9 - -
23/05:30am 13.3 7.3 6.9 65 3.1 WSW 28 35 15 19 1028.9 - -
23/05:20am 13.3 7.3 6.9 65 3.1 WSW 28 37 15 20 1028.8 - -
23/05:10am 13.3 7.6 6.8 64 3.1 WSW 26 33 14 18 1028.8 - -
23/05:00am 13.3 7.2 6.7 64 3.2 SW 28 35 15 19 1028.9 - -
23/04:50am 13.3 7.2 6.6 64 3.2 SW 28 35 15 19 1028.9 - -
23/04:30am 13.3 7.9 6.3 62 3.3 SW 24 39 13 21 1028.7 - -
23/04:20am 13.3 6.5 6.7 64 3.2 SW 32 37 17 20 1028.7 - -
23/04:10am 13.3 7.3 7.0 65 3.1 SW 28 35 15 19 1028.6 - -
23/04:00am 13.3 7.6 6.9 65 3.1 SW 26 33 14 18 1028.6 - -
23/03:50am 13.3 7.6 6.9 65 3.1 SW 26 35 14 19 1028.5 - -
23/03:40am 13.3 7.6 6.8 64 3.1 SW 26 35 14 19 1028.7 - -
23/03:30am 13.0 6.9 6.8 66 3.0 SW 28 37 15 20 1028.4 - -
23/03:20am 13.3 7.3 7.0 65 3.1 SW 28 32 15 17 1028.5 - -
23/03:10am 13.1 7.0 6.8 65 3.0 SW 28 33 15 18 1028.6 - -
23/03:00am 13.0 6.9 6.6 65 3.1 SW 28 37 15 20 1028.2 - -
23/02:50am 13.1 6.7 6.8 65 3.0 SW 30 39 16 21 1028.4 - -
23/02:40am 13.1 7.1 7.0 66 3.0 SW 28 35 15 19 1028.3 - -
23/02:30am 13.2 7.6 7.0 66 3.0 SW 26 35 14 19 1028.3 - -
23/02:20am 13.2 7.5 6.7 64 3.1 SW 26 37 14 20 1028.4 - -
23/02:10am 13.2 7.2 6.9 65 3.0 SW 28 35 15 19 1028.4 - -
23/02:00am 13.2 7.1 6.7 64 3.1 SW 28 33 15 18 1028.4 - -
23/01:50am 13.2 7.5 6.7 64 3.1 SW 26 33 14 18 1028.6 - -
23/01:40am 13.4 7.4 7.0 65 3.1 SW 28 35 15 19 1028.5 - -
23/01:30am 13.3 7.6 6.7 64 3.2 SW 26 33 14 18 1028.4 - -
23/01:20am 13.4 7.4 6.9 65 3.1 SW 28 33 15 18 1028.5 - -
23/01:10am 13.4 7.8 7.0 65 3.1 SW 26 32 14 17 1028.5 - -
23/01:00am 13.5 8.3 7.3 66 3.0 SW 24 41 13 22 1028.6 - -
23/12:50am 13.5 7.9 7.1 65 3.1 SW 26 32 14 17 1028.8 - -
23/12:40am 13.4 7.8 7.1 65 3.1 SW 26 32 14 17 1028.5 - -
23/12:30am 13.5 8.2 7.0 65 3.2 SW 24 32 13 17 1028.7 - -
23/12:20am 13.4 7.7 6.9 65 3.1 SW 26 33 14 18 1028.6 - -
23/12:10am 13.4 8.1 6.6 63 3.3 SW 24 30 13 16 1028.6 - -
23/12:00am 13.5 8.2 6.9 64 3.2 SW 24 32 13 17 1028.6 - -
 
Date/Time
EST
Temp
°C
App
Temp
°C
Dew
Point
Rel
Hum
%
Delta-T
°C
Wind Press
QNH
hPa
Press
MSL
hPa
Rain
since 9 am
mm
Dir
 
Spd
km/h
Gust
km/h
Spd
kts
Gust
kts
22/11:50pm 13.6 8.4 7.3 65 3.1 SW 24 30 13 16 1029.0 - -
22/11:40pm 13.5 9.0 6.9 64 3.2 SW 20 28 11 15 1028.9 - -
22/11:30pm 13.3 8.0 6.6 64 3.2 SW 24 30 13 16 1028.8 - -
22/11:20pm 13.3 7.6 6.6 64 3.2 SW 26 32 14 17 1028.9 - -
22/11:10pm 13.4 8.1 6.7 64 3.2 SW 24 32 13 17 1028.9 - -
22/11:00pm 13.5 7.8 6.7 63 3.3 WSW 26 33 14 18 1028.9 - -
22/10:50pm 13.4 8.0 6.5 63 3.3 SW 24 30 13 16 1029.0 - -
22/10:40pm 13.5 7.8 6.7 63 3.3 SW 26 33 14 18 1029.1 - -
22/10:30pm 14.0 8.6 6.4 60 3.7 SW 24 30 13 16 1028.9 - -
22/10:20pm 14.3 8.3 6.9 61 3.6 SW 28 33 15 18 1028.8 - -
22/10:10pm 14.0 9.1 6.7 61 3.5 SW 22 30 12 16 1028.9 - -
22/10:00pm 13.9 7.5 6.8 62 3.4 SW 30 37 16 20 1028.7 - -
22/09:50pm 13.0 6.5 6.4 64 3.1 SW 30 41 16 22 1028.6 - -
22/09:40pm 12.9 6.4 6.5 65 3.1 SW 30 35 16 19 1028.7 - -
22/09:30pm 13.0 6.9 6.4 64 3.1 SW 28 35 15 19 1028.6 - -
22/09:20pm 12.9 7.4 5.7 61 3.4 SW 24 33 13 18 1028.9 - -
22/09:10pm 13.0 6.4 6.0 62 3.3 SW 30 39 16 21 1029.0 - -
22/09:00pm 13.3 7.2 6.5 63 3.3 SW 28 33 15 18 1029.0 - -
22/08:50pm 12.9 7.1 6.2 64 3.2 SW 26 37 14 20 1029.0 - -
22/08:40pm 12.8 6.5 5.9 63 3.3 WSW 28 33 15 18 1028.9 - -
22/08:30pm 12.8 6.3 6.3 64 3.1 SW 30 37 16 20 1029.1 - -
22/08:20pm 12.8 6.2 6.1 64 3.2 SW 30 37 16 20 1029.0 - -
22/08:10pm 12.9 6.4 6.4 64 3.1 SW 30 37 16 20 1029.0 - -
22/08:00pm 12.9 6.4 6.5 65 3.1 SW 30 35 16 19 1029.0 - -
22/07:50pm 13.1 6.6 6.7 65 3.1 SW 30 33 16 18 1029.0 - -
22/07:40pm 13.2 6.4 6.9 65 3.0 SW 32 37 17 20 1029.1 - -
22/07:30pm 13.3 7.0 7.2 66 3.0 SW 30 37 16 20 1029.0 - -
22/07:20pm 13.3 7.4 7.3 67 2.9 SW 28 35 15 19 1028.9 - -
22/07:10pm 13.5 7.2 7.2 65 3.1 SW 30 35 16 19 1028.9 - -
22/07:00pm 13.8 7.5 7.3 65 3.2 SW 30 33 16 18 1029.1 - -
22/06:50pm 14.0 7.7 7.4 64 3.2 SW 30 35 16 19 1029.1 - -
22/06:40pm 14.0 8.1 7.6 65 3.2 SW 28 33 15 18 1029.0 - -
22/06:30pm 13.8 7.9 7.6 66 3.1 SSW 28 33 15 18 1029.0 - -
22/06:20pm 14.0 7.5 8.0 67 3.0 SSW 32 35 17 19 1029.0 - -
22/06:10pm 14.4 8.0 8.4 67 3.0 SW 32 37 17 20 1028.8 - -
22/06:00pm 14.2 8.9 8.4 68 2.9 SSW 26 32 14 17 1028.8 - -
22/05:50pm 14.3 8.9 8.0 66 3.1 SSW 26 32 14 17 1028.8 - -
22/05:40pm 14.4 11.7 7.2 62 3.5 SW 11 28 6 15 1028.2 - -
22/05:30pm 14.4 11.6 7.0 61 3.6 WSW 11 15 6 8 1028.1 - -
22/05:20pm 14.4 11.2 6.9 60 3.7 WSW 13 15 7 8 1028.0 - -
22/05:10pm 14.3 11.4 6.7 60 3.7 WSW 11 13 6 7 1028.0 - -
22/05:00pm 14.2 11.7 6.5 60 3.7 WSW 9 15 5 8 1028.0 - -
22/04:50pm 14.2 11.3 6.3 59 3.8 WSW 11 15 6 8 1028.0 - -
22/04:40pm 14.2 10.9 6.3 59 3.8 SW 13 17 7 9 1028.0 - -
22/04:30pm 14.3 11.0 6.2 58 3.9 SW 13 20 7 11 1028.0 - -
22/04:20pm 14.3 10.5 6.0 57 4.0 SW 15 20 8 11 1028.0 - -
22/04:10pm 14.2 10.8 6.1 58 3.9 SW 13 22 7 12 1028.0 - -
22/04:00pm 14.1 11.5 6.1 58 3.8 SW 9 15 5 8 1028.0 - -
22/03:50pm 14.1 11.5 6.0 58 3.9 SW 9 13 5 7 1028.0 - -
22/03:40pm 14.1 11.5 5.9 57 3.9 SW 9 11 5 6 1027.9 - -
22/03:30pm 14.2 11.5 5.6 56 4.1 SW 9 15 5 8 1027.9 - -
22/03:20pm 14.3 11.2 5.5 55 4.2 SW 11 15 6 8 1027.9 - -
22/03:10pm 14.4 10.9 5.5 55 4.2 SW 13 17 7 9 1027.9 - -
22/03:00pm 14.4 10.9 5.3 54 4.3 SW 13 15 7 8 1027.9 - -
22/02:50pm 14.2 11.0 5.2 54 4.2 SW 11 15 6 8 1027.8 - -
22/02:40pm 14.2 11.0 5.2 54 4.2 SW 11 15 6 8 1027.7 - -
22/02:30pm 14.2 11.0 5.2 54 4.2 SW 11 17 6 9 1027.6 - -
22/02:20pm 13.9 10.7 5.1 55 4.1 SW 11 15 6 8 1027.5 - -
22/02:10pm 13.6 10.8 5.1 56 4.0 SW 9 13 5 7 1027.4 - -
22/02:00pm 13.4 11.1 5.0 57 3.9 SSW 6 9 3 5 1027.3 - -
22/01:40pm 13.5 11.0 4.9 56 4.0 SW 7 9 4 5 1027.2 - -
22/01:30pm 13.2 10.3 4.6 56 4.0 SSW 9 13 5 7 1027.3 - -
22/01:20pm 13.2 10.7 4.8 56 3.9 SSW 7 13 4 7 1027.2 - -
22/01:10pm 13.0 9.7 4.3 55 4.0 SSW 11 17 6 9 1027.4 - -
22/01:00pm 13.0 9.3 4.4 56 3.9 S 13 17 7 9 1027.5 - -
22/12:50pm 13.1 9.9 4.9 57 3.8 SSW 11 22 6 12 1027.5 - -
22/12:40pm 12.9 9.6 4.5 56 3.8 S 11 17 6 9 1027.6 - -
22/12:30pm 13.0 8.6 4.5 56 3.9 S 17 22 9 12 1027.7 - -
22/12:20pm 13.0 8.6 4.6 56 3.9 S 17 22 9 12 1027.7 - -
22/12:10pm 13.0 8.9 4.5 56 3.9 S 15 24 8 13 1027.7 - -
22/12:00pm 13.0 8.1 4.3 55 4.0 S 19 24 10 13 1027.7 - -
22/11:50am 13.0 8.9 4.1 54 4.0 S 15 20 8 11 1027.6 - -
22/11:40am 12.9 9.1 4.1 55 4.0 S 13 17 7 9 1027.6 - -
22/11:30am 13.0 9.2 4.0 54 4.1 S 13 17 7 9 1027.7 - -
22/11:20am 13.3 9.1 4.0 53 4.2 SSW 15 19 8 10 1027.7 - -
22/11:10am 13.3 9.1 3.9 53 4.3 SSW 15 20 8 11 1027.8 - -
22/11:00am 13.4 9.2 3.6 51 4.4 SSW 15 19 8 10 1027.9 - -
22/10:50am 13.5 9.7 4.0 52 4.3 SSW 13 17 7 9 1027.9 - -
22/10:40am 13.4 9.6 3.9 52 4.3 SSW 13 15 7 8 1028.0 - -
22/10:30am 13.3 9.5 4.1 53 4.2 SSW 13 17 7 9 1028.1 - -
22/10:20am 13.3 9.6 4.2 54 4.2 SSW 13 17 7 9 1028.3 - -
22/10:10am 13.3 8.8 4.3 54 4.1 SSW 17 22 9 12 1028.5 - -
22/10:00am 13.3 8.8 4.4 55 4.1 SSW 17 20 9 11 1028.6 - -
22/09:50am 13.3 8.8 4.2 54 4.2 S 17 22 9 12 1028.6 - -
22/09:40am 13.2 9.1 4.2 54 4.1 S 15 19 8 10 1028.6 - -
22/09:30am 13.2 7.8 4.4 55 4.0 S 22 28 12 15 1028.7 - -
22/09:20am 13.2 7.1 4.7 56 3.9 S 26 30 14 16 1028.8 - -
22/09:10am 13.2 7.5 4.7 56 3.9 S 24 28 13 15 1028.7 - -
22/09:00am 13.2 7.5 5.1 58 3.8 S 24 28 13 15 1028.7 - -
22/08:50am 13.1 7.4 5.0 58 3.8 S 24 30 13 16 1028.7 - -
22/08:40am 13.2 7.6 5.2 58 3.7 S 24 30 13 16 1028.6 - -
22/08:30am 13.2 7.2 5.2 58 3.7 S 26 30 14 16 1028.5 - -
22/08:20am 13.1 6.4 5.4 59 3.6 S 30 33 16 18 1028.4 - -
22/08:10am 13.1 6.4 5.8 61 3.4 S 30 35 16 19 1028.4 - -
22/08:00am 13.1 7.3 6.1 62 3.3 S 26 32 14 17 1028.4 - -
22/07:50am 13.1 7.7 6.2 63 3.3 S 24 30 13 16 1028.2 - -
22/07:40am 13.1 7.7 6.4 64 3.2 S 24 30 13 16 1028.1 - -
22/07:30am 13.0 7.6 6.3 64 3.2 SSE 24 32 13 17 1028.1 - -
22/07:20am 12.9 7.5 6.3 64 3.1 S 24 30 13 16 1028.0 - -
22/07:10am 12.9 7.1 6.3 64 3.1 S 26 35 14 19 1028.0 - -
22/07:00am 12.9 7.1 6.2 64 3.2 SSE 26 32 14 17 1027.8 - -
22/06:50am 12.8 6.6 6.3 64 3.1 SSE 28 32 15 17 1027.7 - -
22/06:40am 12.9 7.2 6.8 66 2.9 SSE 26 33 14 18 1027.6 - -
22/06:30am 12.8 7.2 7.1 68 2.8 S 26 35 14 19 1027.5 - -
22/06:20am 12.6 7.5 7.7 72 2.4 SSE 24 32 13 17 1027.4 - -
22/06:10am 12.1 8.0 8.5 78 1.8 SSE 20 32 11 17 1027.2 - -
22/06:00am 12.1 8.2 8.6 79 1.7 SE 19 33 10 18 1026.9 - -
22/05:50am 12.1 7.6 8.6 79 1.7 SSE 22 33 12 18 1027.0 - -
22/05:40am 11.8 7.8 9.0 83 1.4 SSE 20 32 11 17 1026.9 - -
22/05:30am 11.7 8.6 9.0 83 1.3 SSE 15 20 8 11 1026.8 - -
22/05:20am 11.8 8.7 9.0 83 1.4 SSE 15 19 8 10 1026.7 - -
22/05:10am 11.8 7.9 8.7 81 1.5 S 19 22 10 12 1026.6 - -
22/05:00am 12.2 7.6 8.3 77 1.9 S 22 28 12 15 1026.6 - -
22/04:50am 12.5 8.5 8.1 74 2.2 SSE 19 24 10 13 1026.3 - -
22/04:40am 12.4 7.8 8.0 74 2.2 SSE 22 26 12 14 1026.3 - -
22/04:30am 12.4 8.2 8.4 76 2.0 SSE 20 30 11 16 1026.1 - -
22/04:20am 12.2 8.9 8.1 76 2.0 SSE 15 24 8 13 1026.0 - -
22/04:10am 12.0 4.9 8.1 77 1.9 SSE 35 46 19 25 1026.3 - -
22/04:00am 12.1 3.9 8.4 78 1.8 SSE 41 52 22 28 1026.2 - -
22/03:50am 12.3 4.5 8.4 77 1.9 SSE 39 44 21 24 1026.1 - -
22/03:40am 12.5 5.1 8.4 76 2.0 SSE 37 44 20 24 1026.0 - -
22/03:30am 12.6 6.0 8.4 75 2.1 SSE 33 39 18 21 1025.9 - -
22/03:20am 12.8 6.4 8.5 75 2.1 SSE 32 37 17 20 1025.9 - -
22/03:10am 12.9 6.3 8.4 74 2.2 SSE 33 39 18 21 1025.9 - -
22/03:00am 12.9 6.2 8.1 72 2.4 SSE 33 39 18 21 1025.8 - -
22/02:50am 13.1 6.5 8.4 73 2.3 SSE 33 39 18 21 1025.6 - -
22/02:40am 13.1 6.5 8.4 73 2.3 SSE 33 39 18 21 1025.7 - -
22/02:30am 13.1 6.1 8.5 73 2.3 SSE 35 41 19 22 1025.7 - -
22/02:20am 13.3 6.9 8.7 73 2.3 SSE 32 39 17 21 1025.7 - -
22/02:10am 12.9 9.4 8.9 76 2.0 SSE 17 24 9 13 1025.6 - -
22/02:00am 12.4 8.3 8.5 77 1.9 SSE 20 30 11 16 1025.7 - -
22/01:50am 12.4 8.5 8.7 78 1.8 SE 19 30 10 16 1025.7 - -
22/01:40am 12.5 7.9 8.3 75 2.1 SE 22 35 12 19 1025.8 - -
22/01:30am 12.8 6.7 8.2 73 2.3 SSE 30 37 16 20 1025.9 - -
22/01:20am 13.5 6.5 8.3 71 2.6 SSE 35 44 19 24 1025.9 - -
22/01:10am 13.7 7.1 8.4 70 2.7 SSE 33 39 18 21 1025.8 - -
22/01:00am 13.6 7.1 8.3 70 2.6 SSE 32 35 17 19 1025.8 - -
22/12:50am 13.8 7.1 8.2 69 2.8 SSE 33 39 18 21 1025.8 - -
22/12:40am 14.2 7.4 7.0 62 3.5 SSE 32 39 17 21 1025.7 - -
22/12:30am 14.4 8.6 4.6 51 4.5 SE 24 30 13 16 1025.3 - -
22/12:20am 14.3 9.0 5.0 53 4.4 SSE 22 28 12 15 1025.3 - -
22/12:10am 14.1 9.4 6.1 58 3.8 SSE 20 28 11 15 1025.3 - -
22/12:00am 14.2 8.8 6.4 59 3.8 SSE 24 30 13 16 1025.3 - -
 
Date/Time
EST
Temp
°C
App
Temp
°C
Dew
Point
Rel
Hum
%
Delta-T
°C
Wind Press
QNH
hPa
Press
MSL
hPa
Rain
since 9 am
mm
Dir
 
Spd
km/h
Gust
km/h
Spd
kts
Gust
kts
21/11:50pm 14.1 8.2 6.0 58 3.9 SSE 26 32 14 17 1025.3 - -
21/11:40pm 14.1 8.3 6.3 59 3.7 SSE 26 33 14 18 1025.4 - -
21/11:30pm 14.0 8.2 6.2 59 3.7 SSE 26 32 14 17 1025.4 - -
21/11:10pm 14.0 7.5 6.4 60 3.7 SE 30 35 16 19 1025.4 - -
21/11:00pm 14.1 7.2 6.4 60 3.7 SE 32 35 17 19 1025.5 - -
21/10:50pm 14.1 7.2 6.3 59 3.7 SE 32 37 17 20 1025.5 - -
21/10:40pm 14.1 7.1 6.7 61 3.6 SE 33 39 18 21 1025.5 - -
21/10:30pm 14.1 7.1 7.0 62 3.5 SE 33 39 18 21 1025.4 - -
21/10:20pm 14.1 6.8 7.3 63 3.3 SE 35 43 19 23 1025.4 - -
21/10:10pm 14.0 5.9 7.1 63 3.4 SE 39 48 21 26 1025.4 - -
21/10:00pm 14.1 6.1 7.4 64 3.3 SE 39 46 21 25 1025.4 - -
21/09:50pm 14.2 5.9 7.6 64 3.3 SE 41 46 22 25 1025.4 - -
21/09:40pm 14.2 5.9 7.6 64 3.3 SE 41 46 22 25 1025.4 - -
21/09:30pm 14.3 6.8 7.9 65 3.2 SE 37 44 20 24 1025.3 - -
21/09:20pm 14.3 6.1 8.0 66 3.1 SE 41 46 22 25 1025.3 - -
21/09:10pm 14.4 6.2 8.3 67 3.1 SE 41 46 22 25 1025.2 - -
21/09:00pm 14.5 6.0 8.4 67 3.1 SE 43 48 23 26 1025.2 - -
21/08:50pm 14.7 7.4 8.6 67 3.1 SE 37 43 20 23 1025.1 - -
21/08:40pm 14.7 7.4 8.6 67 3.1 SE 37 44 20 24 1025.1 - -
21/08:30pm 14.7 7.4 8.9 68 3.0 SE 37 43 20 23 1025.0 - -
21/08:20pm 14.7 7.5 9.1 69 2.9 SE 37 43 20 23 1024.8 - -
21/08:10pm 14.6 7.4 9.1 69 2.8 SE 37 43 20 23 1024.7 - -
21/08:00pm 14.7 7.9 9.3 70 2.8 SE 35 43 19 23 1024.7 - -
21/07:50pm 14.9 8.5 9.3 69 2.9 SE 33 39 18 21 1024.6 - -
21/07:40pm 14.7 8.3 9.3 70 2.8 ESE 33 39 18 21 1024.5 - -
21/07:30pm 14.7 8.0 9.5 71 2.7 SE 35 43 19 23 1024.5 - -
21/07:20pm 14.7 8.6 9.8 72 2.5 ESE 32 39 17 21 1024.4 - -
21/07:10pm 14.7 8.6 9.9 73 2.5 ESE 32 39 17 21 1024.3 - -
21/07:00pm 14.7 9.1 10.1 74 2.4 ESE 30 37 16 20 1024.2 - -
21/06:50pm 14.6 8.9 9.9 73 2.4 SE 30 33 16 18 1024.1 - -
21/06:40pm 14.5 8.8 9.9 74 2.4 ESE 30 33 16 18 1024.0 - -
21/06:30pm 14.3 8.2 9.8 74 2.3 ESE 32 37 17 20 1023.9 - -
21/06:20pm 14.5 8.5 10.2 75 2.2 SE 32 39 17 21 1023.9 - -
21/06:10pm 14.4 8.4 10.1 75 2.2 SE 32 39 17 21 1023.8 - -
21/06:00pm 14.3 9.1 10.2 76 2.1 SE 28 33 15 18 1023.8 - -
21/05:50pm 14.3 8.3 10.1 76 2.2 SE 32 37 17 20 1023.8 - -
21/05:40pm 14.2 8.0 10.0 76 2.2 SE 33 39 18 21 1023.7 - -
21/05:30pm 14.4 7.9 10.2 76 2.2 SE 35 43 19 23 1023.7 - -
21/05:20pm 14.5 8.4 9.9 74 2.4 SE 32 37 17 20 1023.5 - -
21/05:10pm 14.4 8.3 9.7 73 2.4 SE 32 37 17 20 1023.4 - -
21/05:00pm 14.3 8.0 9.7 74 2.4 SE 33 39 18 21 1023.4 - -
21/04:50pm 14.3 7.3 9.9 75 2.3 SE 37 44 20 24 1023.2 - -
21/04:40pm 14.6 7.7 10.2 75 2.3 SE 37 44 20 24 1023.1 - -
21/04:30pm 14.5 8.0 10.3 76 2.2 SE 35 43 19 23 1023.0 - -
21/04:20pm 14.5 8.7 10.7 78 2.0 ESE 32 35 17 19 1022.9 - -
21/04:10pm 14.1 6.5 10.4 78 1.9 SE 41 46 22 25 1022.8 - -
21/04:00pm 14.6 8.1 10.2 75 2.3 SE 35 43 19 23 1022.7 - -
21/03:50pm 14.6 7.6 10.1 74 2.3 ESE 37 46 20 25 1022.6 - -
21/03:40pm 14.9 8.3 9.9 72 2.6 ESE 35 43 19 23 1022.4 - -
21/03:30pm 14.9 7.8 9.7 71 2.7 SE 37 44 20 24 1022.4 - -
21/03:20pm 15.0 7.9 9.5 69 2.8 SE 37 43 20 23 1022.2 - -
21/03:10pm 15.0 7.5 9.3 68 2.9 SE 39 46 21 25 1022.1 - -
21/03:00pm 14.9 6.9 9.1 68 3.0 SE 41 46 22 25 1022.0 - -
21/02:50pm 14.8 6.9 9.4 70 2.8 SE 41 46 22 25 1021.9 - -
21/02:40pm 14.9 7.1 9.6 70 2.7 SE 41 48 22 26 1021.8 - -
21/02:30pm 14.8 6.9 9.5 70 2.7 SE 41 46 22 25 1021.7 - -
21/02:20pm 14.8 7.0 9.8 72 2.6 SE 41 46 22 25 1021.6 - -
21/02:10pm 14.8 7.4 9.8 72 2.6 ESE 39 46 21 25 1021.4 - -
21/02:00pm 14.9 7.5 9.9 72 2.6 SE 39 46 21 25 1021.4 - -
21/01:50pm 14.9 7.1 9.8 71 2.6 ESE 41 46 22 25 1021.3 - -
21/01:40pm 14.9 6.6 9.5 70 2.8 ESE 43 48 23 26 1021.2 - -
21/01:30pm 14.8 6.5 9.5 70 2.7 ESE 43 46 23 25 1021.1 - -
21/01:20pm 14.8 7.0 9.7 71 2.6 ESE 41 46 22 25 1021.0 - -
21/01:10pm 14.8 7.0 9.9 72 2.5 ESE 41 48 22 26 1021.0 - -
21/01:00pm 14.8 7.1 10.1 73 2.5 ESE 41 48 22 26 1020.9 - -
21/12:50pm 14.7 7.1 10.4 75 2.3 ESE 41 50 22 27 1020.9 - -
21/12:40pm 14.6 6.7 10.7 77 2.1 ESE 43 48 23 26 1020.9 - -
21/12:30pm 14.6 7.2 11.1 79 1.9 ESE 41 46 22 25 1020.9 - -
21/12:20pm 14.4 7.1 11.5 83 1.6 ESE 41 48 22 26 1020.9 - -
21/12:10pm 14.0 6.4 11.8 86 1.2 SE 43 48 23 26 1021.0 - -
21/12:00pm 13.4 8.9 11.5 88 1.0 SE 26 39 14 21 1021.2 - -
21/11:50am 13.8 7.6 11.5 86 1.2 SE 35 43 19 23 1021.2 - -
21/11:40am 14.2 7.3 11.7 85 1.3 ESE 39 46 21 25 1021.1 - -
21/11:30am 14.3 7.8 11.8 85 1.3 ESE 37 43 20 23 1021.2 - -
21/11:20am 14.5 7.3 11.8 84 1.5 ESE 41 46 22 25 1021.2 - -
21/11:10am 14.6 7.8 11.9 84 1.5 ESE 39 46 21 25 1021.2 - -
21/11:00am 14.6 8.2 12.0 84 1.4 ESE 37 44 20 24 1021.2 - -
21/10:50am 14.6 7.8 12.0 84 1.4 ESE 39 43 21 23 1021.2 - -
21/10:40am 14.6 8.3 12.2 85 1.3 ESE 37 59 20 32 1021.2 - -
21/10:30am 14.6 8.7 12.3 86 1.3 ESE 35 43 19 23 1021.2 - -
21/10:20am 14.7 9.4 12.4 86 1.3 SE 32 37 17 20 1021.3 - -
21/10:10am 14.6 9.1 12.3 86 1.3 SE 33 39 18 21 1021.4 - -
21/10:00am 14.5 8.5 12.1 85 1.3 SE 35 43 19 23 1021.3 - -
21/09:50am 14.4 8.0 11.9 85 1.3 SE 37 43 20 23 1021.2 - -
21/09:40am 14.5 8.4 11.8 84 1.5 SE 35 39 19 21 1021.2 - -
21/09:30am 14.6 8.5 11.9 84 1.5 SE 35 41 19 22 1021.1 - -
21/09:20am 14.7 9.2 11.9 83 1.5 ESE 32 39 17 21 1021.0 - -
21/09:10am 14.9 9.8 11.8 82 1.7 SE 30 33 16 18 1021.0 - -
21/09:00am 14.9 11.6 11.5 80 1.8 SE 20 32 11 17 1021.0 - -
21/08:50am 14.8 12.0 11.3 79 1.9 SE 17 20 9 11 1020.9 - -
21/08:40am 14.8 11.6 11.3 79 1.9 SE 19 22 10 12 1020.9 - -
21/08:30am 14.8 11.6 11.4 80 1.8 SE 19 20 10 11 1020.7 - -
21/08:10am 14.8 12.6 12.0 83 1.5 SSE 15 19 8 10 1020.5 - -
21/08:00am 14.9 13.5 12.3 84 1.4 SSE 11 13 6 7 1020.3 - -
21/07:50am 14.9 13.9 12.3 84 1.4 SSE 9 13 5 7 1020.3 - -
21/07:40am 14.9 13.9 12.3 84 1.4 SSE 9 11 5 6 1020.2 - -
21/07:30am 14.9 14.3 12.3 84 1.4 SSE 7 9 4 5 1020.0 - -
21/07:20am 14.8 14.2 12.3 85 1.4 SSE 7 13 4 7 1019.9 - -
21/07:10am 14.8 13.8 12.3 85 1.4 SSE 9 11 5 6 1019.7 - -
21/07:00am 14.7 13.3 12.2 85 1.4 SSE 11 13 6 7 1019.6 - -
21/06:50am 14.7 13.3 12.2 85 1.4 S 11 13 6 7 1019.6 - -
21/06:40am 14.7 13.3 12.3 85 1.3 S 11 13 6 7 1019.5 - -
21/06:30am 14.6 13.6 12.2 85 1.3 S 9 11 5 6 1019.3 - -
21/06:20am 14.7 14.1 12.3 85 1.3 S 7 11 4 6 1019.1 - -
21/06:10am 14.6 14.1 12.2 85 1.3 S 6 9 3 5 1019.0 - -
21/06:00am 14.6 14.1 12.2 85 1.3 SSW 6 7 3 4 1018.8 - -
21/05:50am 14.6 14.1 12.2 85 1.3 SSW 6 9 3 5 1018.8 - -
21/05:40am 14.5 13.8 12.1 85 1.3 SSW 7 9 4 5 1018.6 - -
21/05:30am 14.6 14.1 12.1 85 1.4 SSW 6 9 3 5 1018.4 - -
21/05:20am 14.6 14.1 12.1 85 1.4 SSW 6 7 3 4 1018.3 - -
21/05:10am 14.5 14.0 12.0 85 1.4 SSW 6 9 3 5 1018.2 - -
21/05:00am 14.6 14.1 12.0 84 1.4 SSW 6 9 3 5 1018.1 - -
21/04:50am 14.5 14.0 11.9 84 1.4 SSW 6 7 3 4 1017.9 - -
21/04:40am 14.6 14.5 12.0 84 1.4 SW 4 6 2 3 1017.7 - -
21/04:30am 14.6 14.5 12.0 84 1.4 SW 4 7 2 4 1017.6 - -
21/04:20am 14.6 14.1 11.9 84 1.5 SW 6 7 3 4 1017.6 - -
21/04:10am 14.6 14.1 11.9 84 1.5 SW 6 9 3 5 1017.5 - -
21/04:00am 14.6 14.0 11.8 83 1.5 SW 6 7 3 4 1017.4 - -
21/03:50am 14.5 13.9 11.7 83 1.5 SW 6 7 3 4 1017.3 - -
21/03:40am 14.7 14.1 11.8 83 1.6 SW 6 9 3 5 1017.2 - -
21/03:30am 14.7 14.1 11.8 83 1.6 SW 6 9 3 5 1017.1 - -
21/03:20am 14.7 14.5 11.7 82 1.6 WSW 4 6 2 3 1017.0 - -
21/03:10am 14.7 14.5 11.7 82 1.6 WSW 4 6 2 3 1017.0 - -
21/03:00am 14.9 14.7 11.8 82 1.7 WSW 4 6 2 3 1016.9 - -
21/02:50am 15.0 14.5 11.9 82 1.7 SW 6 9 3 5 1016.9 - -
21/02:40am 15.3 14.7 12.2 82 1.7 W 7 11 4 6 1016.9 - -
21/02:30am 15.3 14.3 12.3 82 1.6 W 9 13 5 7 1016.9 - -
21/02:20am 15.4 14.5 12.6 83 1.5 W 9 13 5 7 1016.9 - -
21/02:10am 15.2 14.3 12.5 84 1.5 W 9 13 5 7 1016.9 - -
21/02:00am 15.2 14.2 12.4 83 1.5 W 9 13 5 7 1016.8 - -
21/01:50am 15.3 14.0 12.4 83 1.6 WSW 11 15 6 8 1016.7 - -
21/01:40am 15.7 15.4 12.7 82 1.7 W 6 11 3 6 1016.8 - -
21/01:30am 15.7 15.2 12.7 82 1.7 NNE 7 13 4 7 1016.5 - -
21/01:20am 15.8 15.5 12.8 82 1.7 NNE 6 9 3 5 1016.6 - -
21/01:10am 15.6 16.4 12.7 83 1.6 CALM 0 2 0 1 1016.6 - -
21/01:00am 15.5 16.3 12.6 83 1.6 CALM 0 2 0 1 1016.4 - -
21/12:50am 15.5 16.3 12.6 83 1.6 CALM 0 2 0 1 1016.3 - -
21/12:40am 15.5 16.3 12.4 82 1.7 CALM 0 2 0 1 1016.3 - -
21/12:30am 15.3 16.0 12.3 82 1.6 CALM 0 2 0 1 1016.2 - -
21/12:20am 15.3 16.0 12.1 81 1.7 CALM 0 4 0 2 1016.2 - -
21/12:10am 15.4 16.1 12.1 81 1.8 CALM 0 2 0 1 1016.1 - -
21/12:00am 15.2 15.8 11.8 80 1.8 CALM 0 2 0 1 1016.1 - -
 
Date/Time
EST
Temp
°C
App
Temp
°C
Dew
Point
Rel
Hum
%
Delta-T
°C
Wind Press
QNH
hPa
Press
MSL
hPa
Rain
since 9 am
mm
Dir
 
Spd
km/h
Gust
km/h
Spd
kts
Gust
kts
20/11:50pm 15.0 15.5 11.6 80 1.8 CALM 0 2 0 1 1016.1 - -
20/11:40pm 15.0 15.5 11.5 79 1.9 CALM 0 2 0 1 1016.1 - -
20/11:30pm 14.9 15.3 11.4 79 1.9 CALM 0 2 0 1 1016.0 - -
20/11:20pm 14.9 15.3 11.3 79 1.9 CALM 0 0 0 0 1016.1 - -
20/11:10pm 14.9 15.3 11.3 79 1.9 CALM 0 0 0 0 1016.0 - -

Other Formats:

Comma delimited format used in spreadsheet applications
http://www.bom.gov.au/fwo/IDV60801/IDV60801.55039.axf

JavaScript Object Notation format (JSON) in row-major order
http://www.bom.gov.au/fwo/IDV60801/IDV60801.55039.json